Time;durP1;ratioP1;P1;durP2;ratioP2;P2;SDS_P1;SDS_P2;PMS_P1;PMS_P2;Temp;Humidity;BMP_temperature;BMP_pressure;BME280_temperature;BME280_humidity;BME280_pressure;Samples;Min_cycle;Max_cycle;Signal;HPM_P1;HPM_P2
2022/08/30 00:02:24;;;;;;;6.67;2.33;;;19.10;60.80;;;;;;5112608;27;20472;-75
2022/08/30 00:04:54;;;;;;;5.90;2.80;;;19.20;60.80;;;;;;5100672;28;20473;-77
2022/08/30 00:07:22;;;;;;;8.93;2.60;;;19.20;60.80;;;;;;5095782;28;20477;-75
2022/08/30 00:09:50;;;;;;;6.43;2.50;;;19.10;60.80;;;;;;5096487;28;20433;-77
2022/08/30 00:12:20;;;;;;;9.90;2.90;;;19.10;60.90;;;;;;5096699;28;20461;-77
2022/08/30 00:14:49;;;;;;;5.80;2.00;;;19.10;61.00;;;;;;5094457;28;21220;-76
2022/08/30 00:17:18;;;;;;;6.53;2.53;;;19.10;61.10;;;;;;5095723;28;20483;-77
2022/08/30 00:19:46;;;;;;;6.13;2.43;;;19.10;61.30;;;;;;5099155;28;20493;-77
2022/08/30 00:22:14;;;;;;;6.10;2.50;;;19.10;61.30;;;;;;5101160;28;20457;-75
2022/08/30 00:24:42;;;;;;;7.83;2.43;;;19.00;61.40;;;;;;5099251;28;20544;-74
2022/08/30 00:27:10;;;;;;;9.90;3.00;;;19.00;61.40;;;;;;5098113;28;20899;-76
2022/08/30 00:29:40;;;;;;;7.93;2.73;;;18.90;61.30;;;;;;5097343;27;20546;-76
2022/08/30 00:32:08;;;;;;;9.50;2.80;;;18.90;61.40;;;;;;5094868;28;20451;-75
2022/08/30 00:34:36;;;;;;;10.47;3.90;;;18.80;61.50;;;;;;5096387;28;20539;-76
2022/08/30 00:37:04;;;;;;;5.60;2.33;;;18.80;61.70;;;;;;5097644;28;20477;-76
2022/08/30 00:39:32;;;;;;;7.10;2.57;;;18.90;61.70;;;;;;5099974;28;20473;-76
2022/08/30 00:42:00;;;;;;;6.50;2.90;;;18.90;61.70;;;;;;5098157;28;20544;-76
2022/08/30 00:44:28;;;;;;;5.93;2.57;;;18.80;61.80;;;;;;5097214;28;20461;-76
2022/08/30 00:46:57;;;;;;;6.67;2.57;;;18.80;61.80;;;;;;5102532;28;20481;-75
2022/08/30 00:49:26;;;;;;;9.47;3.20;;;18.80;61.90;;;;;;5092621;28;20488;-76
2022/08/30 00:51:55;;;;;;;6.50;2.60;;;18.80;61.90;;;;;;5096420;28;20789;-75
2022/08/30 00:54:24;;;;;;;7.37;2.30;;;18.80;61.90;;;;;;5095300;28;20452;-75
2022/08/30 00:56:53;;;;;;;6.23;2.43;;;18.80;62.00;;;;;;5093570;28;20465;-75
2022/08/30 00:59:23;;;;;;;6.40;2.57;;;18.80;62.00;;;;;;5098338;28;20596;-74
2022/08/30 01:01:51;;;;;;;8.10;2.60;;;18.70;61.80;;;;;;5099719;28;20438;-76
2022/08/30 01:04:23;;;;;;;10.20;2.43;;;18.60;61.80;;;;;;5099454;28;20458;-74
2022/08/30 01:06:52;;;;;;;5.77;2.47;;;18.60;61.80;;;;;;5093233;28;21030;-75
2022/08/30 01:09:21;;;;;;;6.40;2.60;;;18.60;61.80;;;;;;5090846;28;20453;-74
2022/08/30 01:11:49;;;;;;;7.57;3.50;;;18.60;61.80;;;;;;5089658;28;20449;-74
2022/08/30 01:14:20;;;;;;;7.63;2.77;;;18.50;61.90;;;;;;5090479;28;20449;-74
2022/08/30 01:16:55;;;;;;;7.80;2.47;;;18.50;61.90;;;;;;5096831;28;20834;-74
2022/08/30 01:19:34;;;;;;;8.80;3.20;;;18.40;61.80;;;;;;5097285;28;20477;-74
2022/08/30 01:22:10;;;;;;;5.50;2.63;;;18.40;61.70;;;;;;5098233;28;20505;-74
2022/08/30 01:24:39;;;;;;;6.67;2.90;;;18.30;61.70;;;;;;5101166;28;20452;-74
2022/08/30 01:27:07;;;;;;;7.10;2.60;;;18.20;61.70;;;;;;5100695;28;20928;-76
2022/08/30 01:29:35;;;;;;;7.70;2.67;;;18.20;61.70;;;;;;5097434;28;20449;-75
2022/08/30 01:32:06;;;;;;;5.77;2.20;;;18.10;61.80;;;;;;5092795;28;20991;-76
2022/08/30 01:34:34;;;;;;;8.03;2.90;;;18.10;61.70;;;;;;5097131;28;20448;-76
2022/08/30 01:37:02;;;;;;;6.57;2.63;;;18.10;61.70;;;;;;5098373;28;20472;-74
2022/08/30 01:39:30;;;;;;;5.80;2.23;;;18.00;61.80;;;;;;5098374;28;21018;-74
2022/08/30 01:42:00;;;;;;;7.90;2.70;;;18.00;61.90;;;;;;5096186;28;20906;-75
2022/08/30 01:44:28;;;;;;;6.50;2.60;;;18.10;61.90;;;;;;5099676;28;20545;-76
2022/08/30 01:46:56;;;;;;;5.23;2.50;;;18.10;62.00;;;;;;5094876;28;20518;-74
2022/08/30 01:49:24;;;;;;;7.27;2.83;;;18.10;62.00;;;;;;5094752;28;21137;-75
2022/08/30 01:51:55;;;;;;;8.50;2.70;;;18.10;62.10;;;;;;5092798;28;20455;-76
2022/08/30 01:54:29;;;;;;;6.40;2.80;;;18.10;62.10;;;;;;5099022;28;20444;-74
2022/08/30 01:57:08;;;;;;;6.97;2.90;;;18.10;62.10;;;;;;5096928;28;20471;-73
2022/08/30 01:59:37;;;;;;;8.57;2.90;;;18.10;62.10;;;;;;5096874;28;20488;-74
2022/08/30 02:02:06;;;;;;;6.60;2.63;;;18.10;62.00;;;;;;5098295;28;20483;-74
2022/08/30 02:04:35;;;;;;;6.40;2.77;;;18.10;62.00;;;;;;5096378;28;20442;-76
2022/08/30 02:07:04;;;;;;;6.87;2.53;;;18.00;62.00;;;;;;5103227;28;20563;-74
2022/08/30 02:09:32;;;;;;;5.97;2.50;;;18.00;62.00;;;;;;5096520;28;20948;-76
2022/08/30 02:12:00;;;;;;;5.93;2.60;;;18.00;62.00;;;;;;5097349;28;20497;-76
2022/08/30 02:14:38;;;;;;;6.33;2.43;;;17.90;62.10;;;;;;5100771;28;20451;-76
2022/08/30 02:17:07;;;;;;;10.33;2.80;;;17.90;62.20;;;;;;5097823;28;20554;-75
2022/08/30 02:19:36;;;;;;;6.27;2.50;;;17.90;62.20;;;;;;5098939;28;20487;-76
2022/08/30 02:22:04;;;;;;;7.57;2.50;;;17.90;62.20;;;;;;5096311;28;20460;-75
2022/08/30 02:24:33;;;;;;;6.83;2.83;;;17.90;62.20;;;;;;5098036;28;20442;-75
2022/08/30 02:27:01;;;;;;;8.30;3.20;;;17.90;62.20;;;;;;5095000;28;20473;-75
2022/08/30 02:29:31;;;;;;;5.27;2.10;;;17.80;62.30;;;;;;5096960;28;20495;-76
2022/08/30 02:31:59;;;;;;;6.43;2.80;;;17.80;62.10;;;;;;5096352;28;20544;-75
2022/08/30 02:34:27;;;;;;;7.13;3.10;;;17.70;62.10;;;;;;5100417;28;20834;-76
2022/08/30 02:36:55;;;;;;;6.87;3.10;;;17.60;62.10;;;;;;5096790;28;20473;-75
2022/08/30 02:39:23;;;;;;;6.27;2.57;;;17.60;62.10;;;;;;5094862;28;20512;-76
2022/08/30 02:41:51;;;;;;;10.07;2.63;;;17.50;62.20;;;;;;5099616;28;20455;-76
2022/08/30 02:44:19;;;;;;;7.33;2.50;;;17.50;62.30;;;;;;5101084;28;20539;-75
2022/08/30 02:46:48;;;;;;;7.00;3.13;;;17.50;62.40;;;;;;5099979;28;20480;-75
2022/08/30 02:49:16;;;;;;;7.37;3.00;;;17.40;62.50;;;;;;5098511;28;20456;-76
2022/08/30 02:52:02;;;;;;;7.87;2.97;;;17.40;62.50;;;;;;5100739;28;20440;-76
2022/08/30 02:54:31;;;;;;;6.87;2.23;;;17.40;62.40;;;;;;5106108;27;21035;-75
2022/08/30 02:57:03;;;;;;;7.80;2.33;;;17.30;62.40;;;;;;5100522;28;20475;-76
2022/08/30 02:59:32;;;;;;;7.63;3.10;;;17.20;62.50;;;;;;5098352;28;20469;-76
2022/08/30 03:02:01;;;;;;;8.70;3.23;;;17.20;62.60;;;;;;5098318;28;20507;-75
2022/08/30 03:04:30;;;;;;;8.30;2.90;;;17.20;62.70;;;;;;5101524;28;20450;-75
2022/08/30 03:06:58;;;;;;;6.50;2.70;;;17.20;62.80;;;;;;5103020;28;20476;-75
2022/08/30 03:09:26;;;;;;;6.83;2.70;;;17.20;62.90;;;;;;5094742;28;21222;-77
2022/08/30 03:11:54;;;;;;;5.77;2.90;;;17.20;63.00;;;;;;5096219;28;20446;-76
2022/08/30 03:14:23;;;;;;;6.83;2.90;;;17.20;63.10;;;;;;5099168;28;20467;-76
2022/08/30 03:16:51;;;;;;;8.60;3.10;;;17.20;63.10;;;;;;5099720;28;20554;-76
2022/08/30 03:19:20;;;;;;;6.30;2.83;;;17.20;63.00;;;;;;5099619;28;20449;-75
2022/08/30 03:21:49;;;;;;;6.33;2.70;;;17.20;63.00;;;;;;5098692;28;20973;-75
2022/08/30 03:24:17;;;;;;;6.13;2.80;;;17.10;63.00;;;;;;5098377;28;20539;-76
2022/08/30 03:26:45;;;;;;;5.73;2.33;;;17.10;63.20;;;;;;5100398;28;20478;-75
2022/08/30 03:29:14;;;;;;;7.97;3.13;;;17.10;63.20;;;;;;5101163;28;20457;-75
2022/08/30 03:31:42;;;;;;;8.30;3.10;;;17.10;63.20;;;;;;5097526;28;20449;-76
2022/08/30 03:34:22;;;;;;;6.23;2.67;;;17.10;63.40;;;;;;5099835;28;20464;-76
2022/08/30 03:36:51;;;;;;;6.77;3.23;;;17.10;63.20;;;;;;5104369;27;20886;-77
2022/08/30 03:39:21;;;;;;;9.70;3.63;;;17.00;63.10;;;;;;5099331;28;21026;-76
2022/08/30 03:41:50;;;;;;;7.13;2.47;;;17.00;63.20;;;;;;5101769;28;20469;-76
2022/08/30 03:44:19;;;;;;;7.27;3.00;;;17.00;63.40;;;;;;5094074;28;20948;-75
2022/08/30 03:46:48;;;;;;;6.80;2.70;;;16.90;63.40;;;;;;5098373;28;20920;-74
2022/08/30 03:49:16;;;;;;;7.10;3.20;;;16.90;63.40;;;;;;5097039;28;20456;-74
2022/08/30 03:51:46;;;;;;;6.53;3.20;;;17.00;63.60;;;;;;5096840;28;20964;-74
2022/08/30 03:54:14;;;;;;;11.60;3.00;;;17.00;63.70;;;;;;5099453;28;20494;-74
2022/08/30 03:56:43;;;;;;;8.73;2.67;;;17.00;63.80;;;;;;5099409;28;20864;-76
2022/08/30 03:59:12;;;;;;;6.20;2.60;;;17.10;63.80;;;;;;5097034;28;20462;-74
2022/08/30 04:01:40;;;;;;;7.97;3.40;;;17.10;63.70;;;;;;5096496;28;20487;-76
2022/08/30 04:04:09;;;;;;;7.50;3.40;;;17.10;63.60;;;;;;5096080;28;20474;-74
2022/08/30 04:06:37;;;;;;;9.00;3.20;;;17.00;63.60;;;;;;5091159;28;20480;-74
2022/08/30 04:09:06;;;;;;;7.33;2.70;;;17.00;63.70;;;;;;5097519;28;20795;-77
2022/08/30 04:11:34;;;;;;;10.17;3.10;;;17.00;63.80;;;;;;5096651;28;20496;-75
2022/08/30 04:14:02;;;;;;;16.27;3.83;;;17.00;63.80;;;;;;5101646;28;20456;-76
2022/08/30 04:16:30;;;;;;;9.90;3.27;;;17.00;63.90;;;;;;5096801;28;21002;-75
2022/08/30 04:18:58;;;;;;;6.57;3.00;;;17.00;63.80;;;;;;5098843;28;20465;-75
2022/08/30 04:21:32;;;;;;;8.80;2.60;;;17.00;63.80;;;;;;5101633;28;20985;-75
2022/08/30 04:24:11;;;;;;;8.27;2.97;;;17.00;63.90;;;;;;5097270;28;20448;-75
2022/08/30 04:26:39;;;;;;;6.60;2.87;;;16.90;63.80;;;;;;5094450;28;20478;-75
2022/08/30 04:29:07;;;;;;;6.27;2.90;;;16.90;63.90;;;;;;5098085;28;20459;-75
2022/08/30 04:31:35;;;;;;;9.57;3.50;;;16.90;63.90;;;;;;5101084;28;20448;-75
2022/08/30 04:34:03;;;;;;;6.57;2.80;;;16.90;64.00;;;;;;5100369;28;20560;-75
2022/08/30 04:36:31;;;;;;;6.43;2.70;;;16.90;64.00;;;;;;5099556;28;20469;-75
2022/08/30 04:38:59;;;;;;;7.50;2.80;;;16.90;64.00;;;;;;5095978;28;20469;-75
2022/08/30 04:41:29;;;;;;;9.67;3.27;;;16.90;64.10;;;;;;5096740;28;20472;-75
2022/08/30 04:43:56;;;;;;;13.20;3.67;;;17.00;64.10;;;;;;5100589;28;20453;-75
2022/08/30 04:46:24;;;;;;;9.77;2.90;;;16.90;64.10;;;;;;5100182;28;20476;-75
2022/08/30 04:48:52;;;;;;;11.80;3.53;;;16.90;64.10;;;;;;5096979;28;20458;-76
2022/08/30 04:51:20;;;;;;;8.53;2.60;;;16.90;64.20;;;;;;5097266;28;20459;-76
2022/08/30 04:53:48;;;;;;;6.37;2.80;;;16.90;64.30;;;;;;5107316;27;20472;-75
2022/08/30 04:56:21;;;;;;;8.20;2.50;;;16.90;64.40;;;;;;5096240;28;20840;-74
2022/08/30 04:58:52;;;;;;;8.30;3.03;;;16.90;64.40;;;;;;5097055;28;20449;-74
2022/08/30 05:01:22;;;;;;;8.40;3.30;;;16.90;64.40;;;;;;5093919;28;20487;-75
2022/08/30 05:03:53;;;;;;;6.77;3.10;;;16.90;64.50;;;;;;5091483;28;20532;-75
2022/08/30 05:06:21;;;;;;;10.73;3.13;;;17.10;65.10;;;;;;5098210;28;20476;-75
2022/08/30 05:08:50;;;;;;;6.53;3.30;;;17.60;65.40;;;;;;5099354;28;20444;-75
2022/08/30 05:11:19;;;;;;;7.67;2.90;;;18.10;65.00;;;;;;5097011;28;20562;-75
2022/08/30 05:13:48;;;;;;;7.80;2.90;;;18.70;64.40;;;;;;5097163;28;20462;-75
2022/08/30 05:16:18;;;;;;;11.03;3.50;;;19.40;63.90;;;;;;5098295;28;20472;-75
2022/08/30 05:18:47;;;;;;;6.90;3.00;;;20.20;62.90;;;;;;5094314;28;20535;-75
2022/08/30 05:21:17;;;;;;;6.70;3.03;;;20.80;62.00;;;;;;5096778;28;20553;-75
2022/08/30 05:23:46;;;;;;;7.83;3.30;;;21.50;61.10;;;;;;5091170;28;20471;-75
2022/08/30 05:26:16;;;;;;;9.93;3.40;;;22.20;60.20;;;;;;5090357;28;20500;-75
2022/08/30 05:28:45;;;;;;;10.87;3.37;;;22.80;59.30;;;;;;5095696;28;20451;-74
2022/08/30 05:31:17;;;;;;;18.87;4.17;;;23.50;58.40;;;;;;5102436;28;21233;-75
2022/08/30 05:33:46;;;;;;;7.30;2.97;;;24.20;57.40;;;;;;5097994;28;20527;-75
2022/08/30 05:36:16;;;;;;;5.57;2.60;;;24.70;56.40;;;;;;5099267;28;21323;-75
2022/08/30 05:38:45;;;;;;;6.50;3.10;;;25.30;55.30;;;;;;5098449;28;21155;-75
2022/08/30 05:41:13;;;;;;;8.67;2.73;;;25.90;54.50;;;;;;5099735;28;20468;-76
2022/08/30 05:43:43;;;;;;;9.63;3.93;;;26.50;53.30;;;;;;5103601;28;20441;-74
2022/08/30 05:46:17;;;;;;;9.80;4.03;;;26.70;51.80;;;;;;5105619;28;20473;-76
2022/08/30 05:48:48;;;;;;;8.53;3.33;;;26.20;51.00;;;;;;5104236;28;20821;-73
2022/08/30 05:51:18;;;;;;;7.57;3.30;;;25.30;51.00;;;;;;5096699;28;20449;-75
2022/08/30 05:53:48;;;;;;;8.33;3.23;;;24.20;51.30;;;;;;5101611;28;20466;-76
2022/08/30 05:56:18;;;;;;;7.73;3.37;;;23.20;52.20;;;;;;5099690;28;20592;-76
2022/08/30 05:58:46;;;;;;;7.10;2.90;;;22.20;53.20;;;;;;5102529;28;20622;-74
2022/08/30 06:01:22;;;;;;;10.07;3.33;;;21.50;54.20;;;;;;5098903;28;20485;-74
2022/08/30 06:03:52;;;;;;;8.53;3.80;;;20.80;55.00;;;;;;5097316;28;20441;-76
2022/08/30 06:06:20;;;;;;;10.90;3.90;;;20.30;55.90;;;;;;5097232;28;20486;-76
2022/08/30 06:08:48;;;;;;;7.70;3.07;;;20.00;56.60;;;;;;5094690;28;20446;-75
2022/08/30 06:11:19;;;;;;;7.83;2.73;;;19.70;57.30;;;;;;5098492;28;20443;-76
2022/08/30 06:13:47;;;;;;;9.43;3.80;;;19.50;58.00;;;;;;5092903;28;20472;-75
2022/08/30 06:16:18;;;;;;;8.73;4.10;;;19.30;58.50;;;;;;5105550;28;20989;-75
2022/08/30 06:18:47;;;;;;;6.23;2.93;;;19.10;59.10;;;;;;5097050;28;21007;-76
2022/08/30 06:21:18;;;;;;;7.97;3.03;;;19.00;59.50;;;;;;5100418;27;20481;-75
2022/08/30 06:23:46;;;;;;;8.17;3.17;;;19.00;60.00;;;;;;5098238;28;20453;-75
2022/08/30 06:26:15;;;;;;;9.37;3.37;;;18.90;60.30;;;;;;5096706;28;20474;-75
2022/08/30 06:28:43;;;;;;;7.97;3.57;;;18.90;60.70;;;;;;5097713;28;20533;-75
2022/08/30 06:31:13;;;;;;;10.27;3.43;;;18.90;60.90;;;;;;5094682;28;20438;-75
2022/08/30 06:33:42;;;;;;;9.23;2.97;;;18.90;61.20;;;;;;5097400;28;20447;-75
2022/08/30 06:36:13;;;;;;;11.03;3.27;;;18.80;61.40;;;;;;5097814;28;20512;-75
2022/08/30 06:38:44;;;;;;;8.50;3.20;;;18.90;61.70;;;;;;5098932;28;20474;-75
2022/08/30 06:41:14;;;;;;;7.63;3.73;;;18.90;61.90;;;;;;5101570;28;20484;-75
2022/08/30 06:43:42;;;;;;;6.70;2.83;;;18.90;62.20;;;;;;5098609;28;20453;-75
2022/08/30 06:46:18;;;;;;;10.60;3.30;;;18.90;62.40;;;;;;5098277;28;20501;-76
2022/08/30 06:48:46;;;;;;;10.70;3.90;;;18.90;62.60;;;;;;5102888;28;20452;-75
2022/08/30 06:51:19;;;;;;;9.70;3.83;;;19.00;62.90;;;;;;5096459;28;20457;-75
2022/08/30 06:53:48;;;;;;;7.90;2.93;;;19.10;63.10;;;;;;5097879;28;20481;-75
2022/08/30 06:56:17;;;;;;;10.33;3.27;;;19.10;63.20;;;;;;5099757;28;20557;-75
2022/08/30 06:58:46;;;;;;;9.90;3.20;;;19.10;63.30;;;;;;5098279;28;20465;-75
2022/08/30 07:01:16;;;;;;;9.60;3.97;;;19.20;63.40;;;;;;5098327;28;20453;-76
2022/08/30 07:03:45;;;;;;;10.03;2.83;;;19.20;63.40;;;;;;5096462;28;20474;-76
2022/08/30 07:06:13;;;;;;;11.97;3.87;;;19.30;63.40;;;;;;5096221;28;20479;-76
2022/08/30 07:08:42;;;;;;;10.37;3.93;;;19.30;63.40;;;;;;5098583;28;20467;-76
2022/08/30 07:11:11;;;;;;;10.07;3.47;;;19.30;63.40;;;;;;5096511;28;20455;-76
2022/08/30 07:13:39;;;;;;;7.10;2.87;;;19.40;63.50;;;;;;5098813;28;20449;-76
2022/08/30 07:16:11;;;;;;;8.37;3.00;;;19.50;63.50;;;;;;5099037;27;21502;-76
2022/08/30 07:18:53;;;;;;;6.67;2.80;;;19.50;63.50;;;;;;5101235;27;20449;-75
2022/08/30 07:21:25;;;;;;;9.20;3.60;;;19.50;63.50;;;;;;5104376;28;20476;-74
2022/08/30 07:23:55;;;;;;;8.83;3.33;;;19.60;63.50;;;;;;5099477;28;21035;-74
2022/08/30 07:26:26;;;;;;;12.70;3.50;;;19.70;63.50;;;;;;5100279;28;20468;-75
2022/08/30 07:28:56;;;;;;;8.03;3.13;;;19.70;63.60;;;;;;5101216;28;20456;-76
2022/08/30 07:31:24;;;;;;;6.60;3.03;;;19.80;63.60;;;;;;5100598;28;20495;-76
2022/08/30 07:33:52;;;;;;;11.47;3.40;;;19.90;63.60;;;;;;5102057;28;20447;-75
2022/08/30 07:36:21;;;;;;;8.23;2.93;;;19.90;63.60;;;;;;5101261;28;20472;-74
2022/08/30 07:38:50;;;;;;;11.10;3.13;;;19.90;63.60;;;;;;5097328;28;20457;-74
2022/08/30 07:41:21;;;;;;;16.33;3.57;;;20.00;63.70;;;;;;5093839;28;21137;-76
2022/08/30 07:43:50;;;;;;;11.03;4.20;;;20.00;63.70;;;;;;5098340;28;20693;-75
2022/08/30 07:46:19;;;;;;;9.90;2.90;;;20.00;63.80;;;;;;5097353;28;20512;-74
2022/08/30 07:48:48;;;;;;;8.17;3.33;;;20.10;63.80;;;;;;5103022;27;20470;-74
2022/08/30 07:51:19;;;;;;;7.73;3.37;;;20.10;63.80;;;;;;5105304;28;20459;-74
2022/08/30 07:53:47;;;;;;;8.70;3.30;;;20.10;63.80;;;;;;5096757;28;20463;-75
2022/08/30 07:56:15;;;;;;;9.50;3.80;;;20.20;63.80;;;;;;5094792;28;20890;-76
2022/08/30 07:58:44;;;;;;;10.03;3.37;;;20.20;63.70;;;;;;5091981;28;20458;-73
2022/08/30 08:01:14;;;;;;;11.83;3.57;;;20.30;63.70;;;;;;5102597;28;20465;-75
2022/08/30 08:03:43;;;;;;;12.90;3.77;;;20.30;63.70;;;;;;5096865;28;20475;-76
2022/08/30 08:06:13;;;;;;;8.63;3.20;;;20.40;63.70;;;;;;5095962;28;21018;-76
2022/08/30 08:08:44;;;;;;;9.40;3.50;;;20.50;63.70;;;;;;5099502;28;20455;-74
2022/08/30 08:11:14;;;;;;;10.60;3.60;;;20.50;63.80;;;;;;5100645;28;21015;-76
2022/08/30 08:13:43;;;;;;;11.70;4.23;;;20.60;63.80;;;;;;5100850;27;20496;-76
2022/08/30 08:16:24;;;;;;;12.03;3.40;;;20.60;63.70;;;;;;5100644;27;20568;-75
2022/08/30 08:18:53;;;;;;;7.03;3.37;;;20.70;63.70;;;;;;5100858;27;20459;-75
2022/08/30 08:21:21;;;;;;;8.80;3.40;;;20.80;63.70;;;;;;5102520;27;20466;-75
2022/08/30 08:23:50;;;;;;;11.90;4.00;;;20.90;63.70;;;;;;5103485;27;20497;-75
2022/08/30 08:26:18;;;;;;;7.73;3.23;;;21.00;63.50;;;;;;5101327;27;20479;-74
2022/08/30 08:28:46;;;;;;;8.83;4.03;;;21.00;63.40;;;;;;5098131;28;20452;-76
2022/08/30 08:31:16;;;;;;;8.90;3.40;;;21.10;63.40;;;;;;5097408;28;21420;-75
2022/08/30 08:33:46;;;;;;;10.90;3.50;;;21.10;63.30;;;;;;5093281;28;20475;-75
2022/08/30 08:36:14;;;;;;;12.77;3.20;;;21.20;63.30;;;;;;5093745;28;20479;-75
2022/08/30 08:38:42;;;;;;;11.97;3.77;;;21.20;63.30;;;;;;5100776;28;20450;-75
2022/08/30 08:41:21;;;;;;;16.60;4.37;;;21.30;63.20;;;;;;5098682;28;20455;-75
2022/08/30 08:43:49;;;;;;;8.90;4.13;;;21.30;63.20;;;;;;5093911;28;20593;-74
2022/08/30 08:46:25;;;;;;;9.30;3.77;;;21.40;63.20;;;;;;5093802;28;20484;-76
2022/08/30 08:48:57;;;;;;;12.33;3.67;;;21.40;63.10;;;;;;5102088;28;20830;-76
2022/08/30 08:54:27;;;;;;;11.63;3.83;;;21.60;63.20;;;;;;5093859;28;20472;-76
2022/08/30 08:56:55;;;;;;;10.17;3.60;;;21.70;63.00;;;;;;5096145;28;21018;-76
2022/08/30 08:59:23;;;;;;;12.90;5.00;;;21.80;63.00;;;;;;5096234;28;20839;-76
2022/08/30 09:01:51;;;;;;;14.30;5.00;;;21.80;62.90;;;;;;5100066;28;20573;-75
2022/08/30 09:04:32;;;;;;;9.53;3.17;;;21.90;63.00;;;;;;5100282;28;20548;-75
2022/08/30 09:07:04;;;;;;;10.10;3.80;;;22.00;62.80;;;;;;5099338;28;20468;-75
2022/08/30 09:09:34;;;;;;;9.93;4.00;;;22.10;62.70;;;;;;5100325;28;20536;-75
2022/08/30 09:12:03;;;;;;;10.20;3.53;;;22.20;62.60;;;;;;5110502;27;20470;-75
2022/08/30 09:14:36;;;;;;;13.63;4.00;;;22.30;62.50;;;;;;5095179;28;20445;-75
2022/08/30 09:17:08;;;;;;;9.93;3.63;;;22.30;62.30;;;;;;5100422;28;20467;-76
2022/08/30 09:19:58;;;;;;;8.17;3.87;;;22.40;62.30;;;;;;5101870;28;20570;-75
2022/08/30 09:22:32;;;;;;;6.77;3.17;;;22.50;61.80;;;;;;5098529;28;20447;-75
2022/08/30 09:25:05;;;;;;;6.03;3.03;;;22.60;61.90;;;;;;5104248;28;20482;-75
2022/08/30 09:27:35;;;;;;;10.00;3.70;;;22.60;61.70;;;;;;5099628;28;20496;-75
2022/08/30 09:30:08;;;;;;;9.40;2.63;;;22.70;61.60;;;;;;5101826;28;20814;-75
2022/08/30 09:32:44;;;;;;;14.37;4.80;;;22.70;61.60;;;;;;5102476;28;20980;-75
2022/08/30 09:35:19;;;;;;;9.60;3.60;;;22.80;61.20;;;;;;5098954;28;20453;-75
2022/08/30 09:37:53;;;;;;;13.60;4.03;;;22.90;61.30;;;;;;5102549;28;20467;-76
2022/08/30 09:40:33;;;;;;;9.97;3.97;;;22.90;60.80;;;;;;5098433;28;20560;-76
2022/08/30 09:43:07;;;;;;;10.07;3.30;;;23.00;60.90;;;;;;5099439;28;20459;-76
2022/08/30 09:45:37;;;;;;;8.30;3.20;;;23.10;60.80;;;;;;5098801;28;20449;-75
2022/08/30 09:48:27;;;;;;;7.73;3.00;;;23.20;60.70;;;;;;5098036;28;20854;-74
2022/08/30 09:51:28;;;;;;;8.40;3.73;;;23.30;60.30;;;;;;5102468;28;20451;-73
2022/08/30 09:54:06;;;;;;;11.67;3.70;;;23.40;60.00;;;;;;5098990;28;20461;-74
2022/08/30 09:56:53;;;;;;;10.53;3.60;;;23.40;59.90;;;;;;5099218;28;20468;-74
2022/08/30 09:59:34;;;;;;;9.23;3.70;;;23.50;59.60;;;;;;5098211;28;20894;-75
2022/08/30 10:02:11;;;;;;;9.90;3.30;;;23.60;59.60;;;;;;5101668;28;20447;-74
2022/08/30 10:04:46;;;;;;;9.00;3.40;;;23.60;59.50;;;;;;5096915;28;20484;-75
2022/08/30 10:07:25;;;;;;;8.40;3.47;;;23.60;59.10;;;;;;5098120;28;20488;-75
2022/08/30 10:10:02;;;;;;;8.70;3.17;;;23.70;59.00;;;;;;5102588;28;20500;-75
2022/08/30 10:12:38;;;;;;;9.80;3.47;;;23.80;58.90;;;;;;5102904;28;20466;-74
2022/08/30 10:15:10;;;;;;;8.40;3.70;;;23.80;58.70;;;;;;5096394;28;20445;-74
2022/08/30 10:17:50;;;;;;;11.77;3.23;;;23.90;58.50;;;;;;5099199;28;20483;-75
2022/08/30 10:20:26;;;;;;;8.40;2.90;;;23.90;58.40;;;;;;5098530;28;21296;-74
2022/08/30 10:23:00;;;;;;;9.80;3.30;;;24.00;58.00;;;;;;5099403;28;20459;-75
2022/08/30 10:25:33;;;;;;;8.90;3.60;;;24.00;57.90;;;;;;5099696;28;20473;-74
2022/08/30 10:28:06;;;;;;;13.83;3.67;;;24.10;57.40;;;;;;5097182;28;20482;-74
2022/08/30 10:30:38;;;;;;;7.50;3.30;;;24.20;57.40;;;;;;5098614;28;20680;-74
2022/08/30 10:33:10;;;;;;;5.77;3.00;;;24.20;57.20;;;;;;5097873;28;20457;-74
2022/08/30 10:35:43;;;;;;;6.87;2.70;;;24.30;56.60;;;;;;5095575;28;20568;-75
2022/08/30 10:38:19;;;;;;;6.60;2.97;;;24.40;56.60;;;;;;5096041;28;20477;-75
2022/08/30 10:43:48;;;;;;;9.13;3.60;;;24.50;56.30;;;;;;5096587;28;20473;-75
2022/08/30 10:46:23;;;;;;;7.77;3.13;;;24.50;55.90;;;;;;5100274;28;20472;-75
2022/08/30 10:48:54;;;;;;;6.40;2.70;;;24.60;55.80;;;;;;5097553;28;20454;-75
2022/08/30 10:51:30;;;;;;;7.13;2.83;;;24.60;55.40;;;;;;5099635;28;20535;-75
2022/08/30 10:54:08;;;;;;;6.40;2.93;;;24.70;55.10;;;;;;5099762;28;20473;-74
2022/08/30 10:56:41;;;;;;;8.73;3.90;;;24.80;54.80;;;;;;5096487;28;20480;-74
2022/08/30 10:59:09;;;;;;;7.17;2.93;;;24.80;54.40;;;;;;5104975;28;20995;-76
2022/08/30 11:02:01;;;;;;;8.20;3.13;;;24.90;54.10;;;;;;5099167;28;20470;-74
2022/08/30 11:04:47;;;;;;;6.57;2.93;;;25.00;54.10;;;;;;5100273;28;20558;-74
2022/08/30 11:07:24;;;;;;;5.93;3.13;;;25.00;54.00;;;;;;5098898;28;20844;-74
2022/08/30 11:10:12;;;;;;;8.00;3.17;;;25.10;53.80;;;;;;5098925;28;20868;-74
2022/08/30 11:12:50;;;;;;;6.10;3.00;;;25.10;53.60;;;;;;5095573;28;20819;-74
2022/08/30 11:15:21;;;;;;;5.97;3.07;;;25.10;53.40;;;;;;5094387;28;21271;-74
2022/08/30 11:17:55;;;;;;;6.73;3.30;;;25.10;53.20;;;;;;5101501;28;20474;-74
2022/08/30 11:20:33;;;;;;;5.97;3.20;;;25.20;53.10;;;;;;5101103;28;20469;-75
2022/08/30 11:23:28;;;;;;;5.87;2.87;;;25.20;52.50;;;;;;5101247;28;20462;-74
2022/08/30 11:26:04;;;;;;;6.30;3.30;;;25.30;52.70;;;;;;5096510;28;20683;-74
2022/08/30 11:29:04;;;;;;;7.40;3.13;;;25.30;52.50;;;;;;5098982;28;20447;-75
2022/08/30 11:31:42;;;;;;;8.27;3.13;;;25.40;52.10;;;;;;5097037;28;20483;-75
2022/08/30 11:34:12;;;;;;;6.10;2.83;;;25.50;52.30;;;;;;5094013;28;21223;-75
2022/08/30 11:37:02;;;;;;;7.23;3.20;;;25.50;52.20;;;;;;5097162;28;20471;-75
2022/08/30 11:39:57;;;;;;;6.90;2.80;;;25.50;52.00;;;;;;5094729;28;20461;-75
2022/08/30 11:42:38;;;;;;;7.97;3.00;;;25.50;52.10;;;;;;5100824;28;20458;-74
2022/08/30 11:45:44;;;;;;;7.27;3.37;;;25.50;52.10;;;;;;5094870;28;20473;-76
2022/08/30 11:48:55;;;;;;;9.20;3.17;;;25.50;52.00;;;;;;5092612;28;20872;-75
2022/08/30 11:51:59;;;;;;;7.10;2.93;;;25.50;51.70;;;;;;5074672;28;20463;-74
2022/08/30 11:55:04;;;;;;;7.03;3.43;;;25.50;51.90;;;;;;5096565;28;20489;-76
2022/08/30 11:57:44;;;;;;;7.77;3.40;;;25.60;51.80;;;;;;5100232;28;20474;-75
2022/08/30 12:00:27;;;;;;;11.90;4.40;;;25.60;51.60;;;;;;5102799;28;20441;-74
2022/08/30 12:02:59;;;;;;;7.50;3.73;;;25.60;51.60;;;;;;5100745;28;20451;-76
2022/08/30 12:05:49;;;;;;;6.93;3.00;;;25.60;51.60;;;;;;5096405;28;20477;-75
2022/08/30 12:08:50;;;;;;;8.20;3.97;;;25.60;51.60;;;;;;5098919;28;20516;-75
2022/08/30 12:11:57;;;;;;;7.20;3.00;;;25.60;51.40;;;;;;5088420;28;20467;-74
2022/08/30 12:14:47;;;;;;;8.10;3.40;;;25.70;51.40;;;;;;5017837;28;20806;-74
2022/08/30 12:20:18;;;;;;;6.50;3.20;;;25.80;51.00;;;;;;5097229;28;20506;-77
2022/08/30 12:22:48;;;;;;;7.40;3.47;;;25.90;51.10;;;;;;5095176;28;20446;-76
2022/08/30 12:25:24;;;;;;;5.73;2.97;;;26.10;51.10;;;;;;5091122;28;20496;-75
2022/08/30 12:28:09;;;;;;;7.97;3.33;;;26.20;51.00;;;;;;5098911;28;20498;-75
2022/08/30 12:30:39;;;;;;;6.90;3.37;;;26.30;50.70;;;;;;5103597;28;20459;-76
2022/08/30 12:33:12;;;;;;;7.50;3.03;;;26.40;50.60;;;;;;5094707;28;20871;-78
2022/08/30 12:35:42;;;;;;;8.87;3.20;;;26.50;50.40;;;;;;5095302;28;20452;-77
2022/08/30 12:38:18;;;;;;;7.73;3.17;;;26.50;50.40;;;;;;5096073;28;20472;-76
2022/08/30 12:40:57;;;;;;;12.50;3.87;;;26.60;50.30;;;;;;5100336;28;20544;-77
2022/08/30 12:43:30;;;;;;;6.07;3.50;;;26.60;50.20;;;;;;5097336;28;20450;-77
2022/08/30 12:46:12;;;;;;;6.07;2.67;;;26.60;50.10;;;;;;5098931;28;20523;-77
2022/08/30 12:48:44;;;;;;;5.83;3.17;;;26.60;50.10;;;;;;5100442;28;20445;-77
2022/08/30 12:51:27;;;;;;;6.00;3.10;;;26.60;49.90;;;;;;5099161;28;20954;-78
2022/08/30 12:54:04;;;;;;;9.40;3.30;;;26.70;49.50;;;;;;5098275;28;20906;-77
2022/08/30 12:56:49;;;;;;;5.40;2.90;;;26.70;49.60;;;;;;5097810;28;20820;-77
2022/08/30 12:59:52;;;;;;;7.00;3.47;;;26.70;49.60;;;;;;5096507;28;20504;-76
2022/08/30 13:02:44;;;;;;;7.83;3.27;;;26.70;49.60;;;;;;5092798;28;20488;-77
2022/08/30 13:05:45;;;;;;;6.53;3.33;;;26.70;49.40;;;;;;5097040;28;20470;-77
2022/08/30 13:08:19;;;;;;;6.33;3.50;;;26.70;49.30;;;;;;5097178;28;20465;-77
2022/08/30 13:10:56;;;;;;;7.70;3.57;;;26.70;49.40;;;;;;5097189;28;20790;-76
2022/08/30 13:13:31;;;;;;;10.47;3.23;;;26.70;49.20;;;;;;5096405;28;20468;-78
2022/08/30 13:16:11;;;;;;;8.47;3.60;;;26.70;48.60;;;;;;5096086;28;20453;-77
2022/08/30 13:18:41;;;;;;;7.03;3.00;;;26.70;49.10;;;;;;5097253;28;20461;-77
2022/08/30 13:21:21;;;;;;;5.77;3.13;;;26.80;49.00;;;;;;5095203;28;20584;-77
2022/08/30 13:23:49;;;;;;;6.53;3.23;;;26.80;49.00;;;;;;5094240;28;20462;-76